Fresno, Ohio
Current Conditions -  °F | °C
As of 9:53 PM on Saturday 25 Oct 2014 (Local Time) from KPHD Reporting Station
Clear Clear  
Wind Chill: 63°   Ceiling: Unl
Heat Index: 63°   Visibility: 10mi
Dew Point: 38°   Wind: 13mph
Humidity: 40%   Direction: 290°WNW
Pressure: 29.82"   Gusts: 20mph
Location:  40.33°N, 81.74°W
Report Text: KPHD 260153Z AUTO 29011G17KT 10SM CLR 17/03 A2982 RMK AO2 PK WND 32027/0105 SLP096 T01720033
Loading
Personal Weather Stations






























Interactive Weather Map
Tropical Storm Tracking
New forecast layout! Learn more

10-Day Weather Forecast

Advertisements
Track Severe Weather on mobile